This is the latest recevied weather packets stored in our database for station/object W5GMO. If no packets are shown the sender has not sent any weather packets the latest 10 day(s).
| Time | Temp. | Humidity | Pressure | Rain* | Wind** | Luminosity | Snow |
|---|---|---|---|---|---|---|---|
| 1777397130 | 13.89° C | 61% | 1019.8 hPa | 0 mm | - | 232 W/m² | - |
| 1777396827 | 13.33° C | 62% | 1020.1 hPa | 0 mm | - | 168 W/m² | - |
| 1777396220 | 13.33° C | 61% | 1020 hPa | 0 mm | - | 126 W/m² | - |
| 1777395916 | 13.33° C | 63% | 1020.4 hPa | 0 mm | - | 116 W/m² | - |
| 1777395612 | 12.78° C | 63% | 1020.1 hPa | 0 mm | - | 120 W/m² | - |
| 1777395308 | 12.78° C | 64% | 1020.3 hPa | 0 mm | - | 88 W/m² | - |
| 1777395006 | 12.78° C | 64% | 1020.5 hPa | 0 mm | - | 114 W/m² | - |
| 1777393791 | 12.78° C | 66% | 1020.5 hPa | 0 mm | - | 149 W/m² | - |
| 1777392578 | 12.22° C | 68% | 1020.9 hPa | 0 mm | - | 97 W/m² | - |
| 1777392275 | 11.67° C | 68% | 1021.3 hPa | 0 mm | - | 94 W/m² | - |
| 1777391974 | 11.67° C | 69% | 1021.1 hPa | 0 mm | - | 81 W/m² | - |
| 1777391670 | 11.67° C | 70% | 1021.2 hPa | 0 mm | - | 88 W/m² | - |
| 1777389546 | 12.22° C | 72% | 1021.6 hPa | 0 mm | - | 55 W/m² | - |
| 1777388940 | 12.22° C | 72% | 1022 hPa | 0 mm | - | 79 W/m² | - |
| 1777388334 | 12.22° C | 73% | 1022.1 hPa | 0 mm | - | 54 W/m² | - |
| 1777387126 | 12.22° C | 72% | 1022 hPa | 0 mm | - | 80 W/m² | - |
| 1777385914 | 12.22° C | 70% | 1022 hPa | 0 mm | - | 91 W/m² | - |
| 1777385610 | 12.22° C | 69% | 1021.7 hPa | 0 mm | - | 101 W/m² | - |
| 1777384701 | 12.78° C | 65% | 1022.2 hPa | 0 mm | - | 107 W/m² | - |
| 1777383792 | 13.33° C | 63% | 1022.1 hPa | 0 mm | - | 83 W/m² | - |
| 1777381361 | 13.89° C | 61% | 1021.5 hPa | 0 mm | - | 132 W/m² | - |
| 1777381058 | 13.89° C | 62% | 1021.6 hPa | 0 mm | - | 163 W/m² | - |
| 1777380754 | 13.89° C | 62% | 1021.6 hPa | 0 mm | - | 193 W/m² | - |
| 1777380451 | 13.33° C | 64% | 1021.3 hPa | 0 mm | - | 231 W/m² | - |
| 1777379844 | 12.78° C | 65% | 1021.6 hPa | 0 mm | - | 180 W/m² | - |
* Rain latest hour (hover to see other rain measurements)
** Current wind speed in m/s (hover to see current wind gust speed)